sensor_id;sensor_type;location;lat;lon;timestamp;P1;durP1;ratioP1;P2;durP2;ratioP2
72125;SDS011;59999;51.676;22.650;2023-03-01T00:01:01;55.33;;;19.73;;
72125;SDS011;59999;51.676;22.650;2023-03-01T00:03:28;52.67;;;16.60;;
72125;SDS011;59999;51.676;22.650;2023-03-01T00:05:54;48.78;;;15.73;;
72125;SDS011;59999;51.676;22.650;2023-03-01T00:08:20;51.20;;;17.30;;
72125;SDS011;59999;51.676;22.650;2023-03-01T00:10:46;55.50;;;18.90;;
72125;SDS011;59999;51.676;22.650;2023-03-01T00:13:12;51.40;;;18.00;;
72125;SDS011;59999;51.676;22.650;2023-03-01T00:15:39;51.67;;;19.38;;
72125;SDS011;59999;51.676;22.650;2023-03-01T00:18:07;47.03;;;17.97;;
72125;SDS011;59999;51.676;22.650;2023-03-01T00:20:34;47.63;;;15.90;;
72125;SDS011;59999;51.676;22.650;2023-03-01T00:23:00;49.63;;;17.02;;
72125;SDS011;59999;51.676;22.650;2023-03-01T00:25:26;50.95;;;17.30;;
72125;SDS011;59999;51.676;22.650;2023-03-01T00:27:52;51.43;;;18.97;;
72125;SDS011;59999;51.676;22.650;2023-03-01T00:30:18;48.85;;;16.63;;
72125;SDS011;59999;51.676;22.650;2023-03-01T00:32:44;55.00;;;18.83;;
72125;SDS011;59999;51.676;22.650;2023-03-01T00:35:10;54.03;;;17.40;;
72125;SDS011;59999;51.676;22.650;2023-03-01T00:37:36;57.63;;;19.20;;
72125;SDS011;59999;51.676;22.650;2023-03-01T00:40:02;49.50;;;16.70;;
72125;SDS011;59999;51.676;22.650;2023-03-01T00:42:31;46.83;;;16.58;;
72125;SDS011;59999;51.676;22.650;2023-03-01T00:44:57;54.55;;;18.45;;
72125;SDS011;59999;51.676;22.650;2023-03-01T00:47:23;47.20;;;18.00;;
72125;SDS011;59999;51.676;22.650;2023-03-01T00:49:49;43.72;;;15.68;;
72125;SDS011;59999;51.676;22.650;2023-03-01T00:52:15;48.10;;;16.67;;
72125;SDS011;59999;51.676;22.650;2023-03-01T00:54:41;45.07;;;16.00;;
72125;SDS011;59999;51.676;22.650;2023-03-01T00:57:06;45.17;;;17.45;;
72125;SDS011;59999;51.676;22.650;2023-03-01T00:59:32;45.33;;;17.55;;
72125;SDS011;59999;51.676;22.650;2023-03-01T01:01:58;53.97;;;18.70;;
72125;SDS011;59999;51.676;22.650;2023-03-01T01:04:24;53.92;;;18.77;;
72125;SDS011;59999;51.676;22.650;2023-03-01T01:06:50;47.20;;;15.60;;
72125;SDS011;59999;51.676;22.650;2023-03-01T01:09:16;56.50;;;17.03;;
72125;SDS011;59999;51.676;22.650;2023-03-01T01:11:46;46.10;;;14.63;;
72125;SDS011;59999;51.676;22.650;2023-03-01T01:14:16;46.00;;;17.45;;
72125;SDS011;59999;51.676;22.650;2023-03-01T01:16:42;48.17;;;17.98;;
72125;SDS011;59999;51.676;22.650;2023-03-01T01:19:10;45.25;;;16.58;;
72125;SDS011;59999;51.676;22.650;2023-03-01T01:21:36;42.37;;;14.10;;
72125;SDS011;59999;51.676;22.650;2023-03-01T01:24:03;49.97;;;15.05;;
72125;SDS011;59999;51.676;22.650;2023-03-01T01:26:30;45.08;;;15.57;;
72125;SDS011;59999;51.676;22.650;2023-03-01T01:28:58;44.97;;;14.98;;
72125;SDS011;59999;51.676;22.650;2023-03-01T01:31:25;46.13;;;16.83;;
72125;SDS011;59999;51.676;22.650;2023-03-01T01:33:53;45.83;;;15.57;;
72125;SDS011;59999;51.676;22.650;2023-03-01T01:36:20;46.63;;;14.85;;
72125;SDS011;59999;51.676;22.650;2023-03-01T01:38:46;41.25;;;15.32;;
72125;SDS011;59999;51.676;22.650;2023-03-01T01:41:12;44.42;;;15.70;;
72125;SDS011;59999;51.676;22.650;2023-03-01T01:43:43;41.55;;;15.05;;
72125;SDS011;59999;51.676;22.650;2023-03-01T01:48:57;40.47;;;14.43;;
72125;SDS011;59999;51.676;22.650;2023-03-01T01:51:27;42.90;;;14.95;;
72125;SDS011;59999;51.676;22.650;2023-03-01T01:54:06;44.70;;;15.80;;
72125;SDS011;59999;51.676;22.650;2023-03-01T01:56:55;44.75;;;15.95;;
72125;SDS011;59999;51.676;22.650;2023-03-01T01:59:28;39.97;;;13.17;;
72125;SDS011;59999;51.676;22.650;2023-03-01T02:01:55;42.40;;;13.80;;
72125;SDS011;59999;51.676;22.650;2023-03-01T02:04:25;42.47;;;14.20;;
72125;SDS011;59999;51.676;22.650;2023-03-01T02:06:56;27.23;;;10.85;;
72125;SDS011;59999;51.676;22.650;2023-03-01T02:09:32;43.87;;;15.37;;
72125;SDS011;59999;51.676;22.650;2023-03-01T02:11:59;44.10;;;14.13;;
72125;SDS011;59999;51.676;22.650;2023-03-01T02:14:26;40.28;;;14.30;;
72125;SDS011;59999;51.676;22.650;2023-03-01T02:16:52;41.72;;;13.35;;
72125;SDS011;59999;51.676;22.650;2023-03-01T02:19:38;45.60;;;14.87;;
72125;SDS011;59999;51.676;22.650;2023-03-01T02:24:57;43.55;;;14.73;;
72125;SDS011;59999;51.676;22.650;2023-03-01T02:30:20;37.33;;;13.75;;
72125;SDS011;59999;51.676;22.650;2023-03-01T02:32:47;37.70;;;14.37;;
72125;SDS011;59999;51.676;22.650;2023-03-01T02:35:15;40.85;;;13.50;;
72125;SDS011;59999;51.676;22.650;2023-03-01T02:37:43;43.22;;;15.25;;
72125;SDS011;59999;51.676;22.650;2023-03-01T02:40:16;37.70;;;13.13;;
72125;SDS011;59999;51.676;22.650;2023-03-01T02:42:51;38.00;;;13.05;;
72125;SDS011;59999;51.676;22.650;2023-03-01T02:45:19;42.10;;;15.07;;
72125;SDS011;59999;51.676;22.650;2023-03-01T02:47:46;43.33;;;14.25;;
72125;SDS011;59999;51.676;22.650;2023-03-01T02:50:23;22.38;;;9.13;;
72125;SDS011;59999;51.676;22.650;2023-03-01T02:55:36;39.63;;;13.90;;
72125;SDS011;59999;51.676;22.650;2023-03-01T02:58:03;40.90;;;13.27;;
72125;SDS011;59999;51.676;22.650;2023-03-01T03:00:36;38.53;;;14.30;;
72125;SDS011;59999;51.676;22.650;2023-03-01T03:03:05;45.63;;;14.93;;
72125;SDS011;59999;51.676;22.650;2023-03-01T03:05:33;40.75;;;14.98;;
72125;SDS011;59999;51.676;22.650;2023-03-01T03:08:00;36.33;;;13.40;;
72125;SDS011;59999;51.676;22.650;2023-03-01T03:10:28;32.63;;;11.20;;
72125;SDS011;59999;51.676;22.650;2023-03-01T03:12:59;32.40;;;11.60;;
72125;SDS011;59999;51.676;22.650;2023-03-01T03:15:28;39.03;;;14.30;;
72125;SDS011;59999;51.676;22.650;2023-03-01T03:17:57;37.83;;;14.18;;
72125;SDS011;59999;51.676;22.650;2023-03-01T03:20:25;38.00;;;14.03;;
72125;SDS011;59999;51.676;22.650;2023-03-01T03:22:54;38.08;;;13.07;;
72125;SDS011;59999;51.676;22.650;2023-03-01T03:25:21;37.67;;;13.75;;
72125;SDS011;59999;51.676;22.650;2023-03-01T03:27:48;39.80;;;14.13;;
72125;SDS011;59999;51.676;22.650;2023-03-01T03:32:43;47.00;;;15.90;;
72125;SDS011;59999;51.676;22.650;2023-03-01T03:35:27;41.28;;;14.95;;
72125;SDS011;59999;51.676;22.650;2023-03-01T03:37:58;41.22;;;13.93;;
72125;SDS011;59999;51.676;22.650;2023-03-01T03:40:33;36.45;;;13.52;;
72125;SDS011;59999;51.676;22.650;2023-03-01T03:43:08;42.75;;;15.35;;
72125;SDS011;59999;51.676;22.650;2023-03-01T03:45:36;47.63;;;15.23;;
72125;SDS011;59999;51.676;22.650;2023-03-01T03:48:03;43.60;;;14.13;;
72125;SDS011;59999;51.676;22.650;2023-03-01T03:50:31;45.55;;;15.88;;
72125;SDS011;59999;51.676;22.650;2023-03-01T03:52:59;40.15;;;15.77;;
72125;SDS011;59999;51.676;22.650;2023-03-01T03:55:26;45.50;;;16.37;;
72125;SDS011;59999;51.676;22.650;2023-03-01T03:57:58;50.03;;;17.63;;
72125;SDS011;59999;51.676;22.650;2023-03-01T04:00:28;37.50;;;11.95;;
72125;SDS011;59999;51.676;22.650;2023-03-01T04:02:54;39.15;;;12.15;;
72125;SDS011;59999;51.676;22.650;2023-03-01T04:05:22;52.25;;;18.13;;
72125;SDS011;59999;51.676;22.650;2023-03-01T04:07:48;46.30;;;15.40;;
72125;SDS011;59999;51.676;22.650;2023-03-01T04:10:15;55.20;;;16.80;;
72125;SDS011;59999;51.676;22.650;2023-03-01T04:12:42;44.65;;;16.80;;
72125;SDS011;59999;51.676;22.650;2023-03-01T04:15:09;49.80;;;18.23;;
72125;SDS011;59999;51.676;22.650;2023-03-01T04:17:43;53.63;;;17.63;;
72125;SDS011;59999;51.676;22.650;2023-03-01T04:20:11;43.53;;;16.17;;
72125;SDS011;59999;51.676;22.650;2023-03-01T04:22:38;41.22;;;14.73;;
72125;SDS011;59999;51.676;22.650;2023-03-01T04:25:06;40.33;;;14.10;;
72125;SDS011;59999;51.676;22.650;2023-03-01T04:27:35;54.10;;;18.70;;
72125;SDS011;59999;51.676;22.650;2023-03-01T04:30:03;50.85;;;18.27;;
72125;SDS011;59999;51.676;22.650;2023-03-01T04:32:29;51.63;;;15.77;;
72125;SDS011;59999;51.676;22.650;2023-03-01T04:34:55;49.50;;;17.83;;
72125;SDS011;59999;51.676;22.650;2023-03-01T04:37:21;58.13;;;17.45;;
72125;SDS011;59999;51.676;22.650;2023-03-01T04:39:47;51.13;;;17.70;;
72125;SDS011;59999;51.676;22.650;2023-03-01T04:42:16;54.45;;;19.13;;
72125;SDS011;59999;51.676;22.650;2023-03-01T04:44:43;43.97;;;15.85;;
72125;SDS011;59999;51.676;22.650;2023-03-01T04:47:09;52.78;;;19.52;;
72125;SDS011;59999;51.676;22.650;2023-03-01T04:49:35;49.53;;;18.20;;
72125;SDS011;59999;51.676;22.650;2023-03-01T04:52:01;57.25;;;19.13;;
72125;SDS011;59999;51.676;22.650;2023-03-01T04:54:28;56.10;;;20.67;;
72125;SDS011;59999;51.676;22.650;2023-03-01T04:56:55;40.60;;;14.20;;
72125;SDS011;59999;51.676;22.650;2023-03-01T04:59:21;47.75;;;17.40;;
72125;SDS011;59999;51.676;22.650;2023-03-01T05:01:51;52.40;;;19.33;;
72125;SDS011;59999;51.676;22.650;2023-03-01T05:04:18;49.03;;;16.13;;
72125;SDS011;59999;51.676;22.650;2023-03-01T05:06:44;49.83;;;17.17;;
72125;SDS011;59999;51.676;22.650;2023-03-01T05:09:10;67.85;;;21.13;;
72125;SDS011;59999;51.676;22.650;2023-03-01T05:11:36;64.60;;;19.73;;
72125;SDS011;59999;51.676;22.650;2023-03-01T05:14:03;58.40;;;20.77;;
72125;SDS011;59999;51.676;22.650;2023-03-01T05:16:30;58.45;;;20.10;;
72125;SDS011;59999;51.676;22.650;2023-03-01T05:18:57;50.63;;;18.13;;
72125;SDS011;59999;51.676;22.650;2023-03-01T05:21:24;53.25;;;18.52;;
72125;SDS011;59999;51.676;22.650;2023-03-01T05:23:51;54.65;;;19.50;;
72125;SDS011;59999;51.676;22.650;2023-03-01T05:26:18;55.70;;;20.17;;
72125;SDS011;59999;51.676;22.650;2023-03-01T05:28:47;50.00;;;17.73;;
72125;SDS011;59999;51.676;22.650;2023-03-01T05:31:13;42.75;;;15.73;;
72125;SDS011;59999;51.676;22.650;2023-03-01T05:33:40;55.25;;;20.05;;
72125;SDS011;59999;51.676;22.650;2023-03-01T05:36:06;61.20;;;20.98;;
72125;SDS011;59999;51.676;22.650;2023-03-01T05:38:35;53.38;;;19.50;;
72125;SDS011;59999;51.676;22.650;2023-03-01T05:41:01;60.50;;;21.60;;
72125;SDS011;59999;51.676;22.650;2023-03-01T05:43:29;48.95;;;18.60;;
72125;SDS011;59999;51.676;22.650;2023-03-01T05:45:57;53.33;;;17.35;;
72125;SDS011;59999;51.676;22.650;2023-03-01T05:48:23;49.85;;;18.40;;
72125;SDS011;59999;51.676;22.650;2023-03-01T05:50:49;54.70;;;20.92;;
72125;SDS011;59999;51.676;22.650;2023-03-01T05:53:16;59.30;;;21.63;;
72125;SDS011;59999;51.676;22.650;2023-03-01T05:55:46;49.60;;;19.55;;
72125;SDS011;59999;51.676;22.650;2023-03-01T05:58:14;51.60;;;19.27;;
72125;SDS011;59999;51.676;22.650;2023-03-01T06:00:42;54.53;;;20.38;;
72125;SDS011;59999;51.676;22.650;2023-03-01T06:03:12;45.85;;;15.73;;
72125;SDS011;59999;51.676;22.650;2023-03-01T06:05:39;55.53;;;19.90;;
72125;SDS011;59999;51.676;22.650;2023-03-01T06:08:06;55.22;;;20.15;;
72125;SDS011;59999;51.676;22.650;2023-03-01T06:10:34;45.42;;;17.98;;
72125;SDS011;59999;51.676;22.650;2023-03-01T06:13:00;56.03;;;20.63;;
72125;SDS011;59999;51.676;22.650;2023-03-01T06:15:26;51.15;;;20.27;;
72125;SDS011;59999;51.676;22.650;2023-03-01T06:17:53;60.17;;;21.83;;
72125;SDS011;59999;51.676;22.650;2023-03-01T06:20:23;68.70;;;25.42;;
72125;SDS011;59999;51.676;22.650;2023-03-01T06:22:50;64.57;;;25.30;;
72125;SDS011;59999;51.676;22.650;2023-03-01T06:25:18;60.15;;;24.02;;
72125;SDS011;59999;51.676;22.650;2023-03-01T06:27:46;66.22;;;26.20;;
72125;SDS011;59999;51.676;22.650;2023-03-01T06:30:13;123.00;;;43.00;;
72125;SDS011;59999;51.676;22.650;2023-03-01T06:32:41;80.43;;;26.70;;
72125;SDS011;59999;51.676;22.650;2023-03-01T06:35:10;69.20;;;25.63;;
72125;SDS011;59999;51.676;22.650;2023-03-01T06:37:37;61.75;;;21.70;;
72125;SDS011;59999;51.676;22.650;2023-03-01T06:40:04;61.75;;;22.83;;
72125;SDS011;59999;51.676;22.650;2023-03-01T06:42:38;64.03;;;23.40;;
72125;SDS011;59999;51.676;22.650;2023-03-01T06:45:06;64.32;;;23.73;;
72125;SDS011;59999;51.676;22.650;2023-03-01T06:47:33;56.20;;;21.48;;
72125;SDS011;59999;51.676;22.650;2023-03-01T06:49:59;63.38;;;23.30;;
72125;SDS011;59999;51.676;22.650;2023-03-01T06:52:26;62.50;;;22.98;;
72125;SDS011;59999;51.676;22.650;2023-03-01T06:54:52;57.93;;;21.97;;
72125;SDS011;59999;51.676;22.650;2023-03-01T06:57:18;56.30;;;19.77;;
72125;SDS011;59999;51.676;22.650;2023-03-01T06:59:44;52.13;;;21.10;;
72125;SDS011;59999;51.676;22.650;2023-03-01T07:02:13;59.27;;;20.97;;
72125;SDS011;59999;51.676;22.650;2023-03-01T07:04:40;52.20;;;19.17;;
72125;SDS011;59999;51.676;22.650;2023-03-01T07:07:07;54.42;;;19.15;;
72125;SDS011;59999;51.676;22.650;2023-03-01T07:09:33;55.38;;;21.08;;
72125;SDS011;59999;51.676;22.650;2023-03-01T07:12:00;49.33;;;20.50;;
72125;SDS011;59999;51.676;22.650;2023-03-01T07:14:26;57.67;;;21.43;;
72125;SDS011;59999;51.676;22.650;2023-03-01T07:16:53;45.08;;;19.58;;
72125;SDS011;59999;51.676;22.650;2023-03-01T07:19:19;50.10;;;19.83;;
72125;SDS011;59999;51.676;22.650;2023-03-01T07:21:46;55.20;;;22.00;;
72125;SDS011;59999;51.676;22.650;2023-03-01T07:24:12;52.95;;;21.08;;
72125;SDS011;59999;51.676;22.650;2023-03-01T07:26:39;197.80;;;49.77;;
72125;SDS011;59999;51.676;22.650;2023-03-01T07:29:05;89.07;;;28.00;;
72125;SDS011;59999;51.676;22.650;2023-03-01T07:31:32;254.65;;;70.97;;
72125;SDS011;59999;51.676;22.650;2023-03-01T07:33:58;231.57;;;64.97;;
72125;SDS011;59999;51.676;22.650;2023-03-01T07:36:24;174.40;;;48.63;;
72125;SDS011;59999;51.676;22.650;2023-03-01T07:38:50;88.05;;;27.05;;
72125;SDS011;59999;51.676;22.650;2023-03-01T07:41:17;60.15;;;20.55;;
72125;SDS011;59999;51.676;22.650;2023-03-01T07:43:43;54.30;;;20.30;;
72125;SDS011;59999;51.676;22.650;2023-03-01T07:46:09;44.58;;;17.60;;
72125;SDS011;59999;51.676;22.650;2023-03-01T07:48:35;88.97;;;31.70;;
72125;SDS011;59999;51.676;22.650;2023-03-01T07:51:02;116.28;;;45.17;;
72125;SDS011;59999;51.676;22.650;2023-03-01T07:53:29;72.85;;;24.40;;
72125;SDS011;59999;51.676;22.650;2023-03-01T07:56:10;50.17;;;18.77;;
72125;SDS011;59999;51.676;22.650;2023-03-01T07:58:38;48.33;;;17.80;;
72125;SDS011;59999;51.676;22.650;2023-03-01T08:01:06;46.00;;;17.40;;
72125;SDS011;59999;51.676;22.650;2023-03-01T08:03:34;43.05;;;17.85;;
72125;SDS011;59999;51.676;22.650;2023-03-01T08:06:05;48.47;;;18.30;;
72125;SDS011;59999;51.676;22.650;2023-03-01T08:08:33;46.17;;;17.02;;
72125;SDS011;59999;51.676;22.650;2023-03-01T08:11:02;42.43;;;17.13;;
72125;SDS011;59999;51.676;22.650;2023-03-01T08:13:29;41.58;;;17.73;;
72125;SDS011;59999;51.676;22.650;2023-03-01T08:16:00;48.67;;;17.92;;
72125;SDS011;59999;51.676;22.650;2023-03-01T08:18:30;42.42;;;15.70;;
72125;SDS011;59999;51.676;22.650;2023-03-01T08:21:01;43.85;;;15.38;;
72125;SDS011;59999;51.676;22.650;2023-03-01T08:23:28;44.97;;;17.73;;
72125;SDS011;59999;51.676;22.650;2023-03-01T08:26:02;40.50;;;14.45;;
72125;SDS011;59999;51.676;22.650;2023-03-01T08:28:29;40.20;;;15.15;;
72125;SDS011;59999;51.676;22.650;2023-03-01T08:30:55;41.28;;;14.70;;
72125;SDS011;59999;51.676;22.650;2023-03-01T08:33:20;38.30;;;14.77;;
72125;SDS011;59999;51.676;22.650;2023-03-01T08:35:46;38.38;;;14.75;;
72125;SDS011;59999;51.676;22.650;2023-03-01T08:38:12;42.33;;;15.73;;
72125;SDS011;59999;51.676;22.650;2023-03-01T08:40:38;38.58;;;15.10;;
72125;SDS011;59999;51.676;22.650;2023-03-01T08:43:04;69.30;;;28.47;;
72125;SDS011;59999;51.676;22.650;2023-03-01T08:45:30;56.58;;;24.58;;
72125;SDS011;59999;51.676;22.650;2023-03-01T08:47:56;48.58;;;18.15;;
72125;SDS011;59999;51.676;22.650;2023-03-01T08:50:23;63.53;;;28.47;;
72125;SDS011;59999;51.676;22.650;2023-03-01T08:52:49;40.85;;;16.63;;
72125;SDS011;59999;51.676;22.650;2023-03-01T08:55:16;43.40;;;16.67;;
72125;SDS011;59999;51.676;22.650;2023-03-01T08:57:43;43.08;;;16.63;;
72125;SDS011;59999;51.676;22.650;2023-03-01T09:00:09;44.30;;;16.85;;
72125;SDS011;59999;51.676;22.650;2023-03-01T09:02:36;40.60;;;15.87;;
72125;SDS011;59999;51.676;22.650;2023-03-01T09:05:03;40.13;;;16.40;;
72125;SDS011;59999;51.676;22.650;2023-03-01T09:07:28;44.03;;;16.38;;
72125;SDS011;59999;51.676;22.650;2023-03-01T09:09:55;38.72;;;15.85;;
72125;SDS011;59999;51.676;22.650;2023-03-01T09:12:20;37.73;;;15.60;;
72125;SDS011;59999;51.676;22.650;2023-03-01T09:14:47;38.78;;;15.18;;
72125;SDS011;59999;51.676;22.650;2023-03-01T09:17:13;34.53;;;15.00;;
72125;SDS011;59999;51.676;22.650;2023-03-01T09:19:39;36.65;;;13.98;;
72125;SDS011;59999;51.676;22.650;2023-03-01T09:22:05;39.57;;;15.93;;
72125;SDS011;59999;51.676;22.650;2023-03-01T09:24:31;56.38;;;22.20;;
72125;SDS011;59999;51.676;22.650;2023-03-01T09:26:57;55.87;;;20.33;;
72125;SDS011;59999;51.676;22.650;2023-03-01T09:29:23;92.00;;;31.85;;
72125;SDS011;59999;51.676;22.650;2023-03-01T09:31:49;61.40;;;24.80;;
72125;SDS011;59999;51.676;22.650;2023-03-01T09:34:15;56.05;;;24.65;;
72125;SDS011;59999;51.676;22.650;2023-03-01T09:36:44;67.80;;;26.40;;
72125;SDS011;59999;51.676;22.650;2023-03-01T09:39:11;149.13;;;52.67;;
72125;SDS011;59999;51.676;22.650;2023-03-01T09:47:24;41.17;;;18.23;;
72125;SDS011;59999;51.676;22.650;2023-03-01T09:55:40;45.13;;;16.67;;
72125;SDS011;59999;51.676;22.650;2023-03-01T10:00:41;33.70;;;13.97;;
72125;SDS011;59999;51.676;22.650;2023-03-01T10:05:55;29.23;;;11.52;;
72125;SDS011;59999;51.676;22.650;2023-03-01T10:08:40;30.92;;;11.73;;
72125;SDS011;59999;51.676;22.650;2023-03-01T10:14:00;22.35;;;8.60;;
72125;SDS011;59999;51.676;22.650;2023-03-01T10:19:31;19.33;;;8.50;;
72125;SDS011;59999;51.676;22.650;2023-03-01T10:22:35;21.48;;;8.57;;
72125;SDS011;59999;51.676;22.650;2023-03-01T10:24:57;25.83;;;10.02;;
72125;SDS011;59999;51.676;22.650;2023-03-01T10:33:16;20.80;;;8.40;;
72125;SDS011;59999;51.676;22.650;2023-03-01T10:35:44;21.90;;;8.18;;
72125;SDS011;59999;51.676;22.650;2023-03-01T10:38:13;19.83;;;7.10;;
72125;SDS011;59999;51.676;22.650;2023-03-01T10:40:51;23.48;;;8.65;;
72125;SDS011;59999;51.676;22.650;2023-03-01T10:43:23;20.38;;;7.47;;
72125;SDS011;59999;51.676;22.650;2023-03-01T10:45:51;22.52;;;8.10;;
72125;SDS011;59999;51.676;22.650;2023-03-01T10:48:18;26.58;;;9.82;;
72125;SDS011;59999;51.676;22.650;2023-03-01T10:53:24;18.88;;;7.22;;
72125;SDS011;59999;51.676;22.650;2023-03-01T10:55:58;21.63;;;8.13;;
72125;SDS011;59999;51.676;22.650;2023-03-01T10:58:33;20.48;;;8.25;;
72125;SDS011;59999;51.676;22.650;2023-03-01T11:01:02;19.55;;;8.00;;
72125;SDS011;59999;51.676;22.650;2023-03-01T11:03:34;17.85;;;7.75;;
72125;SDS011;59999;51.676;22.650;2023-03-01T11:08:43;20.08;;;7.40;;
72125;SDS011;59999;51.676;22.650;2023-03-01T11:11:21;17.60;;;7.28;;
72125;SDS011;59999;51.676;22.650;2023-03-01T11:16:24;15.45;;;5.97;;
72125;SDS011;59999;51.676;22.650;2023-03-01T11:18:59;18.88;;;7.03;;
72125;SDS011;59999;51.676;22.650;2023-03-01T11:21:32;18.33;;;6.78;;
72125;SDS011;59999;51.676;22.650;2023-03-01T11:24:00;17.27;;;7.18;;
72125;SDS011;59999;51.676;22.650;2023-03-01T11:26:28;20.83;;;8.02;;
72125;SDS011;59999;51.676;22.650;2023-03-01T11:28:56;20.50;;;7.03;;
72125;SDS011;59999;51.676;22.650;2023-03-01T11:31:27;17.42;;;7.07;;
72125;SDS011;59999;51.676;22.650;2023-03-01T11:36:48;17.05;;;6.78;;
72125;SDS011;59999;51.676;22.650;2023-03-01T11:39:17;16.65;;;7.28;;
72125;SDS011;59999;51.676;22.650;2023-03-01T11:41:58;18.80;;;6.82;;
72125;SDS011;59999;51.676;22.650;2023-03-01T11:44:30;17.67;;;7.38;;
72125;SDS011;59999;51.676;22.650;2023-03-01T11:50:02;19.10;;;7.68;;
72125;SDS011;59999;51.676;22.650;2023-03-01T11:55:30;18.10;;;6.43;;
72125;SDS011;59999;51.676;22.650;2023-03-01T11:58:14;16.50;;;6.60;;
72125;SDS011;59999;51.676;22.650;2023-03-01T12:06:45;16.80;;;6.15;;
72125;SDS011;59999;51.676;22.650;2023-03-01T12:21:14;14.82;;;6.15;;
72125;SDS011;59999;51.676;22.650;2023-03-01T12:26:39;20.80;;;7.00;;
72125;SDS011;59999;51.676;22.650;2023-03-01T12:49:04;17.50;;;7.53;;
72125;SDS011;59999;51.676;22.650;2023-03-01T12:51:35;16.25;;;7.30;;
72125;SDS011;59999;51.676;22.650;2023-03-01T12:54:36;15.90;;;6.90;;
72125;SDS011;59999;51.676;22.650;2023-03-01T12:57:31;16.00;;;6.45;;
72125;SDS011;59999;51.676;22.650;2023-03-01T13:02:55;16.92;;;7.03;;
72125;SDS011;59999;51.676;22.650;2023-03-01T13:05:31;20.40;;;8.57;;
72125;SDS011;59999;51.676;22.650;2023-03-01T13:08:15;18.60;;;7.45;;
72125;SDS011;59999;51.676;22.650;2023-03-01T13:11:01;21.15;;;9.93;;
72125;SDS011;59999;51.676;22.650;2023-03-01T13:13:30;24.40;;;11.20;;
72125;SDS011;59999;51.676;22.650;2023-03-01T13:15:56;26.40;;;11.35;;
72125;SDS011;59999;51.676;22.650;2023-03-01T13:20:59;27.35;;;11.35;;
72125;SDS011;59999;51.676;22.650;2023-03-01T13:23:28;37.28;;;15.55;;
72125;SDS011;59999;51.676;22.650;2023-03-01T13:26:02;57.72;;;21.52;;
72125;SDS011;59999;51.676;22.650;2023-03-01T13:33:46;30.92;;;15.15;;
72125;SDS011;59999;51.676;22.650;2023-03-01T13:38:56;22.52;;;10.23;;
72125;SDS011;59999;51.676;22.650;2023-03-01T13:41:48;20.25;;;9.60;;
72125;SDS011;59999;51.676;22.650;2023-03-01T13:47:07;28.27;;;12.60;;
72125;SDS011;59999;51.676;22.650;2023-03-01T13:49:44;27.42;;;12.70;;
72125;SDS011;59999;51.676;22.650;2023-03-01T13:52:34;25.30;;;10.68;;
72125;SDS011;59999;51.676;22.650;2023-03-01T13:55:00;25.55;;;11.45;;
72125;SDS011;59999;51.676;22.650;2023-03-01T13:57:35;30.10;;;14.38;;
72125;SDS011;59999;51.676;22.650;2023-03-01T14:00:06;33.13;;;15.98;;
72125;SDS011;59999;51.676;22.650;2023-03-01T14:02:33;31.65;;;14.82;;
72125;SDS011;59999;51.676;22.650;2023-03-01T14:05:01;35.80;;;14.30;;
72125;SDS011;59999;51.676;22.650;2023-03-01T14:07:28;38.05;;;15.75;;
72125;SDS011;59999;51.676;22.650;2023-03-01T14:09:58;24.45;;;9.65;;
72125;SDS011;59999;51.676;22.650;2023-03-01T14:15:06;32.85;;;11.13;;
72125;SDS011;59999;51.676;22.650;2023-03-01T14:18:07;31.80;;;12.38;;
72125;SDS011;59999;51.676;22.650;2023-03-01T14:20:40;32.35;;;11.23;;
72125;SDS011;59999;51.676;22.650;2023-03-01T14:23:18;38.50;;;17.77;;
72125;SDS011;59999;51.676;22.650;2023-03-01T14:25:47;34.70;;;14.77;;
72125;SDS011;59999;51.676;22.650;2023-03-01T14:28:22;31.73;;;13.30;;
72125;SDS011;59999;51.676;22.650;2023-03-01T14:30:53;38.80;;;13.38;;
72125;SDS011;59999;51.676;22.650;2023-03-01T14:36:10;28.10;;;10.55;;
72125;SDS011;59999;51.676;22.650;2023-03-01T14:38:44;25.50;;;10.47;;
72125;SDS011;59999;51.676;22.650;2023-03-01T14:41:14;44.60;;;15.13;;
72125;SDS011;59999;51.676;22.650;2023-03-01T14:43:44;43.85;;;15.45;;
72125;SDS011;59999;51.676;22.650;2023-03-01T14:46:46;56.63;;;18.73;;
72125;SDS011;59999;51.676;22.650;2023-03-01T14:51:39;24.30;;;9.70;;
72125;SDS011;59999;51.676;22.650;2023-03-01T14:54:27;21.90;;;9.25;;
72125;SDS011;59999;51.676;22.650;2023-03-01T14:56:58;24.10;;;10.20;;
72125;SDS011;59999;51.676;22.650;2023-03-01T14:59:25;25.30;;;9.82;;
72125;SDS011;59999;51.676;22.650;2023-03-01T15:01:51;23.95;;;9.63;;
72125;SDS011;59999;51.676;22.650;2023-03-01T15:04:20;25.00;;;9.20;;
72125;SDS011;59999;51.676;22.650;2023-03-01T15:06:52;25.75;;;9.02;;
72125;SDS011;59999;51.676;22.650;2023-03-01T15:09:20;22.98;;;9.63;;
72125;SDS011;59999;51.676;22.650;2023-03-01T15:11:47;24.55;;;9.93;;
72125;SDS011;59999;51.676;22.650;2023-03-01T15:14:38;29.20;;;10.23;;
72125;SDS011;59999;51.676;22.650;2023-03-01T15:17:13;25.20;;;10.27;;
72125;SDS011;59999;51.676;22.650;2023-03-01T15:20:02;25.33;;;9.70;;
72125;SDS011;59999;51.676;22.650;2023-03-01T15:22:43;29.17;;;11.02;;
72125;SDS011;59999;51.676;22.650;2023-03-01T15:25:16;25.50;;;10.07;;
72125;SDS011;59999;51.676;22.650;2023-03-01T15:27:46;25.63;;;10.35;;
72125;SDS011;59999;51.676;22.650;2023-03-01T15:30:17;28.37;;;10.33;;
72125;SDS011;59999;51.676;22.650;2023-03-01T15:32:46;25.75;;;10.93;;
72125;SDS011;59999;51.676;22.650;2023-03-01T15:38:30;29.02;;;11.60;;
72125;SDS011;59999;51.676;22.650;2023-03-01T15:41:25;28.95;;;12.23;;
72125;SDS011;59999;51.676;22.650;2023-03-01T15:44:25;32.92;;;12.30;;
72125;SDS011;59999;51.676;22.650;2023-03-01T15:46:52;27.63;;;11.48;;
72125;SDS011;59999;51.676;22.650;2023-03-01T15:49:41;29.70;;;11.65;;
72125;SDS011;59999;51.676;22.650;2023-03-01T15:52:12;27.95;;;10.88;;
72125;SDS011;59999;51.676;22.650;2023-03-01T15:54:47;30.20;;;11.70;;
72125;SDS011;59999;51.676;22.650;2023-03-01T15:57:13;33.17;;;13.20;;
72125;SDS011;59999;51.676;22.650;2023-03-01T15:59:40;27.65;;;11.57;;
72125;SDS011;59999;51.676;22.650;2023-03-01T16:02:11;32.17;;;13.18;;
72125;SDS011;59999;51.676;22.650;2023-03-01T16:04:38;34.80;;;13.60;;
72125;SDS011;59999;51.676;22.650;2023-03-01T16:07:04;35.42;;;13.15;;
72125;SDS011;59999;51.676;22.650;2023-03-01T16:09:31;33.53;;;13.27;;
72125;SDS011;59999;51.676;22.650;2023-03-01T16:11:57;35.25;;;13.75;;
72125;SDS011;59999;51.676;22.650;2023-03-01T16:14:23;30.83;;;12.93;;
72125;SDS011;59999;51.676;22.650;2023-03-01T16:16:49;32.53;;;12.60;;
72125;SDS011;59999;51.676;22.650;2023-03-01T16:19:15;30.60;;;12.85;;
72125;SDS011;59999;51.676;22.650;2023-03-01T16:21:42;28.55;;;12.07;;
72125;SDS011;59999;51.676;22.650;2023-03-01T16:24:12;29.08;;;12.10;;
72125;SDS011;59999;51.676;22.650;2023-03-01T16:26:38;32.15;;;12.75;;
72125;SDS011;59999;51.676;22.650;2023-03-01T16:29:04;26.83;;;11.05;;
72125;SDS011;59999;51.676;22.650;2023-03-01T16:31:31;30.95;;;12.10;;